Capt. Billy Slatten — WDC3380 — position and weather

sailwx.info

Track history (hours):
 
Tides and Currents Weather Stations Pressure Air Temp Water Temp Dewpoint Dewpoint Depression Visibility Wind Speed Wind Dir Waves Ship Positions

Capt. Billy Slatten

More information available from US FCC via Universal Licensing System and Coast Guard Vessel Documentation Center.

Last reported at 2014-Sep-15 12:20 UTC. Time now 2014-Sep-16 01:01 UTC.
Position N 30°03' W 090°29'.

Length 30 m; draft 3.5 m.

Type: Tug. MMSI: 367007030.

Date/timePositionNaut miles runAvg speedWind from/ knotsBaromVisibWave heightAir tempDewpointWater temp
2014-Sep-15 12:20N 30°03' W 090°29'3 3.9
2014-Sep-15 11:33N 30°03' W 090°32'0 0.0
2014-Sep-15 10:33N 30°03' W 090°32'0 0.0
2014-Sep-15 09:33N 30°03' W 090°32'0 0.0
2014-Sep-15 08:33N 30°03' W 090°32'0 0.0
2014-Sep-15 07:34N 30°03' W 090°32'0 0.0
2014-Sep-15 06:34N 30°03' W 090°32'0 0.0
2014-Sep-15 05:33N 30°03' W 090°32'0 0.0
2014-Sep-15 04:33N 30°03' W 090°32'0 0.0
2014-Sep-15 03:33N 30°03' W 090°32'0 0.0
2014-Sep-15 02:33N 30°03' W 090°32'0 0.0
2014-Sep-15 01:33N 30°03' W 090°32'0 0.0
2014-Sep-15 00:33N 30°03' W 090°32'0 0.1
2014-Sep-14 23:33N 30°03' W 090°32'0 0.0
2014-Sep-14 22:33N 30°03' W 090°32'1 0.5
2014-Sep-14 21:33N 30°03' W 090°33'0 0.0
2014-Sep-14 20:33N 30°03' W 090°33'1 0.6
2014-Sep-14 19:33N 30°03' W 090°33'0 0.0
2014-Sep-14 18:33N 30°03' W 090°33'0 0.0
2014-Sep-14 17:33N 30°03' W 090°33'0 0.0
2014-Sep-14 16:33N 30°03' W 090°33'0 0.0
2014-Sep-14 15:33N 30°03' W 090°33'0 0.0
2014-Sep-14 14:33N 30°03' W 090°33'0 0.0
2014-Sep-14 13:33N 30°03' W 090°33'0 0.0
2014-Sep-14 12:33N 30°03' W 090°33'0 0.0
2014-Sep-14 11:33N 30°03' W 090°33'0 0.0
2014-Sep-14 10:33N 30°03' W 090°33'0 0.0
2014-Sep-14 09:33N 30°03' W 090°33'1 1.4
2014-Sep-14 08:33N 30°03' W 090°35'0 0.4
2014-Sep-14 07:33N 30°03' W 090°36'1 1.3
2014-Sep-14 06:33N 30°03' W 090°34'0 0.0
2014-Sep-14 05:33N 30°03' W 090°34'0 0.0
2014-Sep-14 04:33N 30°03' W 090°34'1 0.9
2014-Sep-14 03:33N 30°03' W 090°35'0 0.0
2014-Sep-14 02:33N 30°03' W 090°35'1 1.4
2014-Sep-14 01:33N 30°03' W 090°33'0 0.0
2014-Sep-13 21:33N 30°03' W 090°33'0 0.0
2014-Sep-13 20:33N 30°03' W 090°33'0 0.0
2014-Sep-13 19:33N 30°03' W 090°33'0 0.0
2014-Sep-13 18:33N 30°03' W 090°33'0 0.0
2014-Sep-13 17:33N 30°03' W 090°33'0 0.0
2014-Sep-13 16:33N 30°03' W 090°33'0 0.0
2014-Sep-13 15:33N 30°03' W 090°33'0 0.0
2014-Sep-13 14:33N 30°03' W 090°33'1 1.3
2014-Sep-13 13:33N 30°03' W 090°35'10 1.9
2014-Sep-13 08:18N 30°01' W 090°46'8 8.8
2014-Sep-13 07:27N 30°02' W 090°37'3 3.5
2014-Sep-13 06:33N 30°03' W 090°34'0 0.1
2014-Sep-13 05:33N 30°03' W 090°34'0 0.4
2014-Sep-13 04:33N 30°03' W 090°33'0 0.0
2014-Sep-13 03:33N 30°03' W 090°33'0 0.0
2014-Sep-13 02:33N 30°03' W 090°33'1 1.0
2014-Sep-13 01:33N 30°03' W 090°35'16 0.4
2014-Sep-11 05:15N 30°04' W 090°53'1 1.0
2014-Sep-11 04:22N 30°04' W 090°52'3 0.2
2014-Sep-10 11:33N 30°05' W 090°54'10 0.4
2014-Sep-09 12:33N 30°01' W 090°44'0 0.1
2014-Sep-09 11:33N 30°01' W 090°44'0 0.0
2014-Sep-09 10:33N 30°01' W 090°44'0 0.0
2014-Sep-09 09:33N 30°01' W 090°44'0 0.0
2014-Sep-09 08:33N 30°01' W 090°44'0 0.0
2014-Sep-09 07:33N 30°01' W 090°44'0 0.0
2014-Sep-09 06:33N 30°01' W 090°44'0 0.0
2014-Sep-09 05:30N 30°01' W 090°44'0 0.0
2014-Sep-09 04:33N 30°01' W 090°44'0 0.0
2014-Sep-09 03:33N 30°01' W 090°44'0 0.0
2014-Sep-09 02:33N 30°01' W 090°44'0 0.0
2014-Sep-09 01:33N 30°01' W 090°44'0 0.0
2014-Sep-09 00:33N 30°01' W 090°44'0 0.0
2014-Sep-08 23:33N 30°01' W 090°44'0 0.0
2014-Sep-08 22:33N 30°01' W 090°44'6 0.1
2014-Sep-07 01:22N 29°60' W 090°50'0 0.0
2014-Sep-06 13:31N 29°60' W 090°50'0 0.1
2014-Sep-06 12:33N 29°60' W 090°50'4 4.1
2014-Sep-06 11:31N 30°04' W 090°52'0 0.0
2014-Sep-06 05:26N 30°04' W 090°52'1 1.2
2014-Sep-06 04:31N 30°03' W 090°51'  
Track history (hours):
 
Tides and Currents Weather Stations Pressure Air Temp Water Temp Dewpoint Dewpoint Depression Visibility Wind Speed Wind Dir Waves Ship Positions

Capt. Billy Slatten

More information available from US FCC via Universal Licensing System and Coast Guard Vessel Documentation Center.

Last reported at 2014-Sep-15 12:20 UTC. Time now 2014-Sep-16 01:01 UTC.
Position N 30°03' W 090°29'.

Length 30 m; draft 3.5 m.

Type: Tug. MMSI: 367007030.

Date/timePositionNaut miles runAvg speedWind from/ knotsBaromVisibWave heightAir tempDewpointWater temp
2014-Sep-15 12:20N 30°03' W 090°29'3 3.9
2014-Sep-15 11:33N 30°03' W 090°32'0 0.0
2014-Sep-15 10:33N 30°03' W 090°32'0 0.0
2014-Sep-15 09:33N 30°03' W 090°32'0 0.0
2014-Sep-15 08:33N 30°03' W 090°32'0 0.0
2014-Sep-15 07:34N 30°03' W 090°32'0 0.0
2014-Sep-15 06:34N 30°03' W 090°32'0 0.0
2014-Sep-15 05:33N 30°03' W 090°32'0 0.0
2014-Sep-15 04:33N 30°03' W 090°32'0 0.0
2014-Sep-15 03:33N 30°03' W 090°32'0 0.0
2014-Sep-15 02:33N 30°03' W 090°32'0 0.0
2014-Sep-15 01:33N 30°03' W 090°32'0 0.0
2014-Sep-15 00:33N 30°03' W 090°32'0 0.1
2014-Sep-14 23:33N 30°03' W 090°32'0 0.0
2014-Sep-14 22:33N 30°03' W 090°32'1 0.5
2014-Sep-14 21:33N 30°03' W 090°33'0 0.0
2014-Sep-14 20:33N 30°03' W 090°33'1 0.6
2014-Sep-14 19:33N 30°03' W 090°33'0 0.0
2014-Sep-14 18:33N 30°03' W 090°33'0 0.0
2014-Sep-14 17:33N 30°03' W 090°33'0 0.0
2014-Sep-14 16:33N 30°03' W 090°33'0 0.0
2014-Sep-14 15:33N 30°03' W 090°33'0 0.0
2014-Sep-14 14:33N 30°03' W 090°33'0 0.0
2014-Sep-14 13:33N 30°03' W 090°33'0 0.0
2014-Sep-14 12:33N 30°03' W 090°33'0 0.0
2014-Sep-14 11:33N 30°03' W 090°33'0 0.0
2014-Sep-14 10:33N 30°03' W 090°33'0 0.0
2014-Sep-14 09:33N 30°03' W 090°33'1 1.4
2014-Sep-14 08:33N 30°03' W 090°35'0 0.4
2014-Sep-14 07:33N 30°03' W 090°36'1 1.3
2014-Sep-14 06:33N 30°03' W 090°34'0 0.0
2014-Sep-14 05:33N 30°03' W 090°34'0 0.0
2014-Sep-14 04:33N 30°03' W 090°34'1 0.9
2014-Sep-14 03:33N 30°03' W 090°35'0 0.0
2014-Sep-14 02:33N 30°03' W 090°35'1 1.4
2014-Sep-14 01:33N 30°03' W 090°33'0 0.0
2014-Sep-13 21:33N 30°03' W 090°33'0 0.0
2014-Sep-13 20:33N 30°03' W 090°33'0 0.0
2014-Sep-13 19:33N 30°03' W 090°33'0 0.0
2014-Sep-13 18:33N 30°03' W 090°33'0 0.0
2014-Sep-13 17:33N 30°03' W 090°33'0 0.0
2014-Sep-13 16:33N 30°03' W 090°33'0 0.0
2014-Sep-13 15:33N 30°03' W 090°33'0 0.0
2014-Sep-13 14:33N 30°03' W 090°33'1 1.3
2014-Sep-13 13:33N 30°03' W 090°35'10 1.9
2014-Sep-13 08:18N 30°01' W 090°46'8 8.8
2014-Sep-13 07:27N 30°02' W 090°37'3 3.5
2014-Sep-13 06:33N 30°03' W 090°34'0 0.1
2014-Sep-13 05:33N 30°03' W 090°34'0 0.4
2014-Sep-13 04:33N 30°03' W 090°33'0 0.0
2014-Sep-13 03:33N 30°03' W 090°33'0 0.0
2014-Sep-13 02:33N 30°03' W 090°33'1 1.0
2014-Sep-13 01:33N 30°03' W 090°35'16 0.4
2014-Sep-11 05:15N 30°04' W 090°53'1 1.0
2014-Sep-11 04:22N 30°04' W 090°52'3 0.2
2014-Sep-10 11:33N 30°05' W 090°54'10 0.4
2014-Sep-09 12:33N 30°01' W 090°44'0 0.1
2014-Sep-09 11:33N 30°01' W 090°44'0 0.0
2014-Sep-09 10:33N 30°01' W 090°44'0 0.0
2014-Sep-09 09:33N 30°01' W 090°44'0 0.0
2014-Sep-09 08:33N 30°01' W 090°44'0 0.0
2014-Sep-09 07:33N 30°01' W 090°44'0 0.0
2014-Sep-09 06:33N 30°01' W 090°44'0 0.0
2014-Sep-09 05:30N 30°01' W 090°44'0 0.0
2014-Sep-09 04:33N 30°01' W 090°44'0 0.0
2014-Sep-09 03:33N 30°01' W 090°44'0 0.0
2014-Sep-09 02:33N 30°01' W 090°44'0 0.0
2014-Sep-09 01:33N 30°01' W 090°44'0 0.0
2014-Sep-09 00:33N 30°01' W 090°44'0 0.0
2014-Sep-08 23:33N 30°01' W 090°44'0 0.0
2014-Sep-08 22:33N 30°01' W 090°44'6 0.1
2014-Sep-07 01:22N 29°60' W 090°50'0 0.0
2014-Sep-06 13:31N 29°60' W 090°50'0 0.1
2014-Sep-06 12:33N 29°60' W 090°50'4 4.1
2014-Sep-06 11:31N 30°04' W 090°52'0 0.0
2014-Sep-06 05:26N 30°04' W 090°52'1 1.2
2014-Sep-06 04:31N 30°03' W 090°51'  

Dump ship's entire track history